首页
METAR-TAF:

METAR-TAF

机场 :

真纳国际机场

卡拉奇, 巴基斯坦

纬度: 24-54N, 经度: 067-08E, 海拔: 21米

当前天气观测

该预报发布于21分钟前的11:25 UTC
风速7节,风向西转西北
温度 36°C
湿度 16%
气压 1010 hPa
能見度: 7000

METAR: OPKC 191125Z 30007KT 7000 NSC 36/06 Q1010 NOSIG

时间: 16:46 (11:46 UTC)

预报

该预报发布于2小时和16分钟前的09:30 UTC
预报有效从19日的 12点(UTC)到 19日的 21点(UTC)
风速5节,风向西,有时为15节阵风
能見度: 6000
少量云层高于3000英尺

TAF: OPKC 190930Z 1912/1921 28005G15KT 6000 FEW030

超过4000个机场的气象观测和天气预报(METAR&TAF报告)。

可查询的气象台以黄色和红色小点在地图上表示。

将鼠标移到小点上方,可查看气象台名称。

然后点击查看天气观测和预报。

如需切换地图:点击带黑十字的绿色按钮放大地图;点击带横线的绿色按钮缩小地图;或者点击绿色箭头查看邻近地区的地图。


METAR-TAF: